Time;durP1;ratioP1;P1;durP2;ratioP2;P2;SDS_P1;SDS_P2;PMS_P1;PMS_P2;Temp;Humidity;BMP_temperature;BMP_pressure;BME280_temperature;BME280_humidity;BME280_pressure;Samples;Min_cycle;Max_cycle;Signal;HPM_P1;HPM_P2
2023/05/01 00:00:09;;;;;;;;;1.00;1.00;;;;;16.36;68.34;100836.00;5075416;27;45461;-73
2023/05/01 00:02:35;;;;;;;;;2.00;1.00;;;;;16.40;68.05;100847.47;5073080;28;45604;-74
2023/05/01 00:05:01;;;;;;;;;2.67;2.00;;;;;16.46;68.32;100847.56;5073808;28;46142;-73
2023/05/01 00:07:30;;;;;;;;;2.33;2.00;;;;;16.47;68.13;100844.03;5075973;28;45299;-73
2023/05/01 00:09:59;;;;;;;;;3.00;2.00;;;;;16.55;67.75;100855.53;5072000;28;45421;-74
2023/05/01 00:12:25;;;;;;;;;1.67;1.67;;;;;16.54;68.29;100855.53;5076301;27;45467;-74
2023/05/01 00:14:52;;;;;;;;;2.00;2.00;;;;;16.52;68.14;100858.16;5091093;27;46680;-73
2023/05/01 00:17:18;;;;;;;;;1.00;1.00;;;;;16.39;68.24;100833.41;5091013;27;45435;-74
2023/05/01 00:19:43;;;;;;;;;2.00;2.00;;;;;16.39;68.09;100829.88;5074309;28;45402;-73
2023/05/01 00:22:09;;;;;;;;;2.00;2.00;;;;;16.27;68.25;100812.19;5074390;28;45639;-74
2023/05/01 00:24:35;;;;;;;;;1.33;1.33;;;;;16.49;68.31;100859.03;5072537;28;45410;-73
2023/05/01 00:27:02;;;;;;;;;1.33;1.33;;;;;16.40;68.23;100843.09;5075445;27;45523;-73
2023/05/01 00:29:28;;;;;;;;;2.00;1.00;;;;;16.35;68.38;100836.00;5075855;28;45463;-74
2023/05/01 00:31:54;;;;;;;;;2.00;1.00;;;;;16.34;68.73;100835.13;5075713;27;45470;-73
2023/05/01 00:34:19;;;;;;;;;2.67;2.00;;;;;16.29;68.72;100819.25;5076754;27;45291;-73
2023/05/01 00:36:45;;;;;;;;;1.00;1.00;;;;;16.30;69.03;100825.41;5078963;28;45556;-73
2023/05/01 00:39:11;;;;;;;;;1.67;1.67;;;;;16.25;68.84;100814.81;5077554;28;45382;-74
2023/05/01 00:41:36;;;;;;;;;2.00;2.00;;;;;16.30;68.78;100814.88;5079176;27;45505;-73
2023/05/01 00:44:02;;;;;;;;;1.00;1.00;;;;;16.36;68.96;100825.47;5077337;28;45510;-73
2023/05/01 00:46:29;;;;;;;;;1.00;1.00;;;;;16.30;68.85;100809.59;5078916;27;45580;-73
2023/05/01 00:48:56;;;;;;;;;1.00;1.00;;;;;16.33;68.77;100803.44;5077729;28;45280;-74
2023/05/01 00:51:22;;;;;;;;;1.33;0.00;;;;;16.20;69.03;100795.41;5077503;28;45402;-74
2023/05/01 00:53:48;;;;;;;;;0.00;0.00;;;;;16.26;69.06;100806.03;5078692;28;45344;-74
2023/05/01 00:56:15;;;;;;;;;1.00;0.00;;;;;16.31;68.98;100813.97;5078611;27;45381;-73
2023/05/01 00:58:41;;;;;;;;;1.00;0.00;;;;;16.25;69.22;100820.09;5078600;27;45359;-73
2023/05/01 01:01:09;;;;;;;;;1.00;1.00;;;;;16.18;69.18;100806.81;5077392;28;45395;-74
2023/05/01 01:03:35;;;;;;;;;0.33;0.33;;;;;16.10;69.01;100786.53;5074320;28;48027;-74
2023/05/01 01:06:13;;;;;;;;;1.00;1.00;;;;;16.18;69.31;100806.81;5078430;27;45701;-73
2023/05/01 01:08:44;;;;;;;;;1.00;0.00;;;;;16.25;69.17;100816.53;5076474;28;45526;-73
2023/05/01 01:11:24;;;;;;;;;0.67;0.67;;;;;16.22;69.49;100812.13;5078506;27;45475;-74
2023/05/01 01:14:02;;;;;;;;;1.00;1.00;;;;;16.23;69.31;100805.97;5078310;27;46665;-73
2023/05/01 01:16:44;;;;;;;;;1.00;1.00;;;;;16.12;69.23;100797.09;5076573;28;46413;-73
2023/05/01 01:19:35;;;;;;;;;1.00;1.00;;;;;16.14;69.33;100798.00;5076210;28;45465;-73
2023/05/01 01:22:11;;;;;;;;;2.00;1.00;;;;;15.98;69.54;100783.75;5092025;27;45381;-73
2023/05/01 01:24:56;;;;;;;;;1.00;1.00;;;;;15.97;70.09;100799.53;5075324;28;46162;-73
2023/05/01 01:27:57;;;;;;;;;1.00;1.00;;;;;15.87;70.42;100801.19;5076065;28;45452;-73
2023/05/01 01:30:47;;;;;;;;;1.00;1.00;;;;;15.81;70.31;100804.63;5076090;28;45399;-74
2023/05/01 01:33:22;;;;;;;;;0.00;0.00;;;;;15.82;70.56;100801.13;5071370;28;45469;-74
2023/05/01 01:35:56;;;;;;;;;1.00;1.00;;;;;15.85;70.45;100787.97;5039379;28;46396;-74
2023/05/01 01:38:36;;;;;;;;;1.00;1.00;;;;;15.88;70.16;100777.50;5037512;28;45850;-73
2023/05/01 01:41:13;;;;;;;;;2.00;1.00;;;;;15.89;70.00;100778.38;5037820;28;45267;-74
2023/05/01 01:43:51;;;;;;;;;1.00;1.00;;;;;15.99;69.84;100788.16;5037458;28;45497;-73
2023/05/01 01:46:19;;;;;;;;;0.00;0.00;;;;;15.92;69.89;100762.59;5056680;28;46203;-74
2023/05/01 01:48:49;;;;;;;;;0.00;0.00;;;;;16.00;70.15;100782.03;5057459;28;45501;-74
2023/05/01 01:51:19;;;;;;;;;2.00;1.00;;;;;16.00;69.94;100774.13;5039582;28;45510;-73
2023/05/01 01:53:50;;;;;;;;;1.00;1.00;;;;;15.93;69.74;100760.84;5057781;28;45277;-74
2023/05/01 01:56:19;;;;;;;;;0.00;0.00;;;;;15.88;69.94;100752.91;5036610;28;46788;-74
2023/05/01 01:58:46;;;;;;;;;0.00;0.00;;;;;15.76;70.45;100736.97;5057345;28;45570;-74
2023/05/01 02:01:14;;;;;;;;;0.00;0.00;;;;;15.86;70.53;100752.88;5039091;28;45421;-73
2023/05/01 02:03:42;;;;;;;;;0.00;0.00;;;;;15.80;70.36;100754.56;5039217;28;45468;-73
2023/05/01 02:06:12;;;;;;;;;0.00;0.00;;;;;15.87;70.26;100767.81;5057180;28;46705;-73
2023/05/01 02:08:39;;;;;;;;;0.00;0.00;;;;;15.80;70.53;100759.84;5054647;28;45490;-73
2023/05/01 02:11:05;;;;;;;;;1.00;0.67;;;;;15.80;70.34;100759.84;5057219;28;45399;-74
2023/05/01 02:13:32;;;;;;;;;1.00;1.00;;;;;15.78;70.57;100757.19;5057071;28;45592;-73
2023/05/01 02:16:01;;;;;;;;;0.67;0.67;;;;;15.56;70.42;100729.66;5057214;28;46151;-74
2023/05/01 02:18:28;;;;;;;;;0.00;0.00;;;;;15.73;70.12;100763.25;5039104;28;45280;-74
2023/05/01 02:20:57;;;;;;;;;1.67;1.00;;;;;15.78;70.32;100783.53;5057258;28;46296;-73
2023/05/01 02:23:24;;;;;;;;;0.00;0.00;;;;;15.63;70.26;100757.81;5055615;28;45393;-73
2023/05/01 02:25:52;;;;;;;;;1.00;1.00;;;;;15.69;70.82;100776.34;5056807;28;45305;-73
2023/05/01 02:28:22;;;;;;;;;0.00;0.00;;;;;15.65;70.61;100769.25;5054394;28;45310;-74
2023/05/01 02:30:47;;;;;;;;;1.00;1.00;;;;;15.63;70.64;100771.00;5056860;28;45515;-73
2023/05/01 02:33:13;;;;;;;;;0.00;0.00;;;;;15.60;70.61;100757.81;5048380;28;45633;-74
2023/05/01 02:35:43;;;;;;;;;0.00;0.00;;;;;15.68;70.57;100766.69;5077109;28;46329;-74
2023/05/01 02:38:13;;;;;;;;;0.00;0.00;;;;;15.73;70.67;100763.25;5077053;27;45390;-74
2023/05/01 02:40:45;;;;;;;;;0.00;0.00;;;;;15.78;70.47;100762.44;5091492;27;45281;-75
2023/05/01 02:43:17;;;;;;;;;0.00;0.00;;;;;15.83;70.46;100773.03;5077870;28;45586;-74
2023/05/01 02:45:44;;;;;;;;;0.00;0.00;;;;;15.79;70.19;100776.50;5077958;27;46434;-74
2023/05/01 02:48:13;;;;;;;;;1.00;1.00;;;;;15.73;70.41;100760.63;5077559;27;45463;-74
2023/05/01 02:50:40;;;;;;;;;0.00;0.00;;;;;15.64;70.58;100745.56;5074507;28;45382;-74
2023/05/01 02:53:07;;;;;;;;;0.00;0.00;;;;;15.73;70.42;100752.72;5076996;28;45390;-74
2023/05/01 02:55:33;;;;;;;;;0.00;0.00;;;;;15.86;70.48;100770.44;5077743;28;45430;-74
2023/05/01 02:57:59;;;;;;;;;1.00;1.00;;;;;15.77;70.20;100746.63;5077376;27;45437;-74
2023/05/01 03:00:25;;;;;;;;;0.67;0.00;;;;;15.79;70.63;100755.41;5076699;28;45464;-74
2023/05/01 03:02:51;;;;;;;;;0.00;0.00;;;;;15.63;70.78;100744.66;5078004;28;45541;-74
2023/05/01 03:05:18;;;;;;;;;0.00;0.00;;;;;15.61;70.94;100762.19;5078009;28;45640;-75
2023/05/01 03:07:44;;;;;;;;;1.00;1.00;;;;;15.45;70.92;100753.19;5077734;27;45435;-75
2023/05/01 03:10:10;;;;;;;;;1.00;1.00;;;;;15.43;73.56;100767.22;5077731;28;45479;-74
2023/05/01 03:12:35;;;;;;;;;1.67;1.00;;;;;15.38;73.63;100753.09;5074004;28;45538;-74
2023/05/01 03:15:01;;;;;;;;;0.00;0.00;;;;;15.38;73.17;100750.47;5075888;28;46865;-74
2023/05/01 03:17:26;;;;;;;;;0.33;0.00;;;;;15.46;73.26;100757.63;5077819;28;45475;-74
2023/05/01 03:19:52;;;;;;;;;1.00;0.00;;;;;15.45;73.29;100753.19;5077538;28;45523;-74
2023/05/01 03:22:18;;;;;;;;;0.67;0.67;;;;;15.48;73.15;100747.13;5077965;27;45625;-74
2023/05/01 03:24:43;;;;;;;;;0.33;0.33;;;;;15.61;73.80;100766.56;5077131;27;46011;-75
2023/05/01 03:27:09;;;;;;;;;0.00;0.00;;;;;15.55;73.57;100745.44;5077653;27;45551;-74
2023/05/01 03:29:36;;;;;;;;;1.00;1.00;;;;;15.51;73.51;100742.75;5077287;27;45409;-74
2023/05/01 03:32:02;;;;;;;;;0.00;0.00;;;;;15.36;73.42;100724.16;5076513;28;45477;-74
2023/05/01 03:34:28;;;;;;;;;0.00;0.00;;;;;15.52;74.27;100767.34;5077731;27;45247;-74
2023/05/01 03:36:55;;;;;;;;;0.00;0.00;;;;;15.55;74.76;100770.00;5080317;28;45321;-74
2023/05/01 03:39:20;;;;;;;;;0.00;0.00;;;;;15.43;74.14;100743.53;5084223;28;45492;-74
2023/05/01 03:41:46;;;;;;;;;0.00;0.00;;;;;15.38;74.40;100738.22;5084936;28;45212;-74
2023/05/01 03:44:11;;;;;;;;;0.00;0.00;;;;;15.45;73.70;100749.69;5084628;28;45287;-75
2023/05/01 03:46:37;;;;;;;;;0.00;0.00;;;;;15.35;73.77;100743.41;5078492;28;45255;-74
2023/05/01 03:49:02;;;;;;;;;0.00;0.00;;;;;15.23;74.00;100725.72;5077088;28;45522;-74
2023/05/01 03:51:28;;;;;;;;;0.00;0.00;;;;;15.33;74.72;100747.78;5079363;28;45364;-75
2023/05/01 03:53:57;;;;;;;;;0.00;0.00;;;;;15.30;74.85;100745.13;5076707;28;46183;-75
2023/05/01 03:56:24;;;;;;;;;0.00;0.00;;;;;15.42;74.60;100762.81;5077689;28;45530;-74
2023/05/01 03:58:50;;;;;;;;;0.00;0.00;;;;;15.24;73.71;100731.84;5093390;27;45427;-74
2023/05/01 04:01:16;;;;;;;;;0.00;0.00;;;;;15.35;74.57;100764.47;5077805;28;45318;-74
2023/05/01 04:03:42;;;;;;;;;0.00;0.00;;;;;15.15;75.46;100740.50;5075731;28;45592;-74
2023/05/01 04:06:07;;;;;;;;;0.00;0.00;;;;;15.16;74.67;100749.28;5077299;28;45509;-74
2023/05/01 04:08:33;;;;;;;;;0.00;0.00;;;;;15.03;75.35;100729.81;5078117;27;45210;-74
2023/05/01 04:10:58;;;;;;;;;0.00;0.00;;;;;15.04;75.36;100750.88;5081638;28;45385;-74
2023/05/01 04:13:24;;;;;;;;;0.00;0.00;;;;;15.14;74.90;100761.53;5080908;28;46593;-74
2023/05/01 04:15:49;;;;;;;;;0.00;0.00;;;;;15.20;75.23;100773.06;5079363;28;45340;-74
2023/05/01 04:18:15;;;;;;;;;1.00;0.00;;;;;15.19;75.02;100760.75;5080542;28;45333;-73
2023/05/01 04:20:40;;;;;;;;;0.00;0.00;;;;;15.09;75.61;100737.78;5081133;28;45522;-74
2023/05/01 04:23:08;;;;;;;;;0.00;0.00;;;;;15.26;74.76;100767.88;5080556;27;45573;-74
2023/05/01 04:25:34;;;;;;;;;0.00;0.00;;;;;15.21;75.22;100755.50;5086594;27;45724;-74
2023/05/01 04:27:59;;;;;;;;;0.00;0.00;;;;;15.27;75.04;100774.00;5089834;27;45414;-74
2023/05/01 04:30:25;;;;;;;;;0.00;0.00;;;;;15.27;74.76;100769.63;5088992;27;45209;-74
2023/05/01 04:32:50;;;;;;;;;0.00;0.00;;;;;15.11;74.19;100754.47;5089025;27;46451;-73
2023/05/01 04:35:16;;;;;;;;;0.00;0.00;;;;;15.17;74.41;100773.00;5090722;27;45242;-73
2023/05/01 04:37:41;;;;;;;;;0.00;0.00;;;;;14.91;74.48;100726.13;5095363;27;45449;-74
2023/05/01 04:40:08;;;;;;;;;0.00;0.00;;;;;15.21;73.63;100769.53;5101305;27;45264;-74
2023/05/01 04:42:33;;;;;;;;;0.00;0.00;;;;;15.17;74.32;100758.97;5100861;27;46757;-74
2023/05/01 04:45:03;;;;;;;;;0.00;0.00;;;;;15.26;74.34;100770.50;5101064;27;45237;-74
2023/05/01 04:47:28;;;;;;;;;0.00;0.00;;;;;15.21;74.62;100761.66;5101419;27;45326;-75
2023/05/01 04:49:54;;;;;;;;;0.00;0.00;;;;;15.36;75.11;100789.94;5099487;27;45498;-74
2023/05/01 04:52:20;;;;;;;;;0.67;0.00;;;;;15.31;74.41;100787.22;5099261;27;45443;-74
2023/05/01 04:54:45;;;;;;;;;0.00;0.00;;;;;15.22;75.03;100773.97;5100914;27;45362;-74
2023/05/01 04:57:13;;;;;;;;;0.00;0.00;;;;;15.11;75.29;100776.41;5101001;27;45498;-74
2023/05/01 04:59:39;;;;;;;;;0.00;0.00;;;;;15.09;75.09;100769.38;5101050;27;45577;-74
2023/05/01 05:02:05;;;;;;;;;0.00;0.00;;;;;14.95;76.35;100755.13;5100838;27;45362;-74
2023/05/01 05:04:32;;;;;;;;;0.00;0.00;;;;;14.89;75.06;100750.66;5101021;27;45321;-73
2023/05/01 05:06:58;;;;;;;;;0.00;0.00;;;;;14.56;75.89;100693.09;5100958;27;45534;-74
2023/05/01 05:09:23;;;;;;;;;0.00;0.00;;;;;15.04;76.03;100785.09;5100553;27;46054;-74
2023/05/01 05:11:51;;;;;;;;;0.00;0.00;;;;;14.74;75.94;100726.72;5100502;27;45462;-74
2023/05/01 05:14:17;;;;;;;;;0.00;0.00;;;;;14.36;75.50;100677.00;5100605;27;45468;-74
2023/05/01 05:16:42;;;;;;;;;1.00;0.00;;;;;14.73;77.63;100767.94;5099126;27;45462;-74
2023/05/01 05:19:08;;;;;;;;;0.00;0.00;;;;;14.60;78.48;100765.94;5100337;27;45335;-74
2023/05/01 05:21:34;;;;;;;;;1.00;0.00;;;;;14.05;77.26;100661.63;5097752;27;45842;-74
2023/05/01 05:24:00;;;;;;;;;0.00;0.00;;;;;14.73;77.05;100785.47;5133581;27;45415;-74
2023/05/01 05:26:26;;;;;;;;;0.00;0.00;;;;;14.28;76.70;100708.41;5099856;27;45511;-74
2023/05/01 05:28:51;;;;;;;;;0.00;0.00;;;;;14.79;77.25;100791.69;5099144;27;45257;-74
2023/05/01 05:31:17;;;;;;;;;0.00;0.00;;;;;14.02;77.20;100665.94;5098549;27;45442;-74
2023/05/01 05:33:43;;;;;;;;;0.00;0.00;;;;;14.82;77.44;100794.38;5100008;27;45481;-73
2023/05/01 05:36:09;;;;;;;;;0.00;0.00;;;;;14.26;76.42;100684.72;5099874;27;45284;-74
2023/05/01 05:38:35;;;;;;;;;0.00;0.00;;;;;14.70;76.39;100768.78;5100387;27;45499;-74
2023/05/01 05:41:00;;;;;;;;;0.00;0.00;;;;;14.61;76.85;100746.69;5099950;27;45373;-74
2023/05/01 05:43:26;;;;;;;;;0.00;0.00;;;;;14.72;75.91;100755.63;5099287;27;45403;-74
2023/05/01 05:45:56;;;;;;;;;0.00;0.00;;;;;14.83;75.76;100788.25;5100022;27;45623;-73
2023/05/01 05:48:22;;;;;;;;;0.00;0.00;;;;;14.84;76.58;100783.88;5098832;27;45590;-73
2023/05/01 05:50:49;;;;;;;;;0.00;0.00;;;;;14.75;76.53;100755.69;5099689;27;45582;-74
2023/05/01 05:53:15;;;;;;;;;0.00;0.00;;;;;15.08;77.06;100805.31;5100009;27;45426;-74
2023/05/01 05:55:42;;;;;;;;;0.00;0.00;;;;;15.13;75.98;100810.66;5099698;27;45368;-74
2023/05/01 05:58:07;;;;;;;;;0.00;0.00;;;;;15.08;76.01;100793.91;5100058;27;45322;-74
2023/05/01 06:00:33;;;;;;;;;0.00;0.00;;;;;15.04;75.33;100785.09;5082114;27;45652;-74
2023/05/01 06:02:58;;;;;;;;;0.00;0.00;;;;;15.19;76.17;100797.59;5078610;28;45320;-74
2023/05/01 06:05:24;;;;;;;;;0.00;0.00;;;;;15.24;75.74;100801.19;5077990;28;45286;-74
2023/05/01 06:07:50;;;;;;;;;0.00;0.00;;;;;15.38;76.13;100804.03;5079908;27;45400;-73
2023/05/01 06:10:15;;;;;;;;;0.00;0.00;;;;;15.30;75.26;100796.00;5078134;27;46344;-73
2023/05/01 06:12:41;;;;;;;;;0.00;0.00;;;;;15.28;75.57;100803.00;5076714;27;45476;-74
2023/05/01 06:15:07;;;;;;;;;0.00;0.00;;;;;15.27;75.23;100806.47;5078289;27;45322;-74
2023/05/01 06:17:34;;;;;;;;;0.00;0.00;;;;;15.34;75.91;100817.09;5077324;28;45374;-73
2023/05/01 06:20:00;;;;;;;;;0.67;0.00;;;;;15.39;76.28;100823.31;5078176;28;46589;-73
2023/05/01 06:22:26;;;;;;;;;0.00;0.00;;;;;15.25;75.25;100788.91;5078668;27;45280;-74
2023/05/01 06:24:51;;;;;;;;;0.00;0.00;;;;;15.37;75.75;100812.75;5078730;27;45439;-74
2023/05/01 06:27:17;;;;;;;;;0.00;0.00;;;;;15.42;75.56;100808.47;5078762;27;45270;-74
2023/05/01 06:29:42;;;;;;;;;1.00;0.00;;;;;15.51;75.03;100812.97;5077098;28;46677;-74
2023/05/01 06:32:08;;;;;;;;;0.00;0.00;;;;;15.60;74.78;100817.50;5076743;27;45865;-74
2023/05/01 06:34:33;;;;;;;;;0.00;0.00;;;;;15.61;74.87;100817.50;5077709;28;45660;-74
2023/05/01 06:37:06;;;;;;;;;0.00;0.00;;;;;15.68;74.62;100826.38;5079076;27;45377;-74
2023/05/01 06:39:32;;;;;;;;;0.00;0.00;;;;;15.65;74.67;100808.75;5078496;27;45786;-74
2023/05/01 06:41:57;;;;;;;;;0.00;0.00;;;;;15.94;73.87;100820.59;5078565;27;45420;-74
2023/05/01 06:44:23;;;;;;;;;0.00;0.00;;;;;15.96;73.33;100821.50;5077345;28;45382;-74
2023/05/01 06:46:48;;;;;;;;;0.00;0.00;;;;;15.98;73.07;100822.41;5078750;28;45499;-75
2023/05/01 06:49:14;;;;;;;;;0.00;0.00;;;;;16.01;73.37;100846.13;5076949;28;47921;-74
2023/05/01 06:51:39;;;;;;;;;0.00;0.00;;;;;15.96;72.94;100821.50;5078311;28;45336;-74
2023/05/01 06:54:05;;;;;;;;;0.00;0.00;;;;;16.04;73.34;100831.25;5078155;27;45448;-75
2023/05/01 06:56:31;;;;;;;;;0.00;0.00;;;;;16.21;73.42;100833.19;5093318;27;45667;-75
2023/05/01 06:58:56;;;;;;;;;0.00;0.00;;;;;16.21;72.75;100831.44;5076091;28;47257;-74
2023/05/01 07:01:22;;;;;;;;;0.00;0.00;;;;;16.28;72.72;100838.56;5076564;28;45583;-75
2023/05/01 07:03:47;;;;;;;;;0.00;0.00;;;;;16.09;72.16;100826.03;5077752;27;45547;-74
2023/05/01 07:06:13;;;;;;;;;0.00;0.00;;;;;16.20;71.95;100847.25;5077095;28;45533;-72
2023/05/01 07:08:39;;;;;;;;;0.00;0.00;;;;;16.24;71.27;100844.66;5076130;28;46635;-75
2023/05/01 07:11:04;;;;;;;;;0.00;0.00;;;;;16.36;70.96;100849.19;5076006;28;45532;-74
2023/05/01 07:13:30;;;;;;;;;0.00;0.00;;;;;16.32;70.72;100822.78;5075532;28;45517;-74
2023/05/01 07:15:55;;;;;;;;;0.00;0.00;;;;;16.27;70.48;100797.28;5076147;28;45545;-75
2023/05/01 07:18:21;;;;;;;;;0.33;0.00;;;;;16.65;69.87;100819.59;5075638;28;47100;-74
2023/05/01 07:20:48;;;;;;;;;0.00;0.00;;;;;17.12;68.69;100866.66;5076153;28;45585;-74
2023/05/01 07:23:14;;;;;;;;;0.00;0.00;;;;;17.22;67.65;100871.16;5076063;28;45469;-74
2023/05/01 07:25:43;;;;;;;;;0.00;0.00;;;;;17.17;67.81;100851.75;5078209;28;45358;-75
2023/05/01 07:28:09;;;;;;;;;0.00;0.00;;;;;17.19;67.06;100857.03;5077790;27;46665;-75
2023/05/01 07:30:36;;;;;;;;;0.00;0.00;;;;;17.57;67.25;100861.72;5075529;28;45685;-75
2023/05/01 07:33:01;;;;;;;;;0.00;0.00;;;;;17.82;66.40;100876.81;5076105;28;45506;-75
2023/05/01 07:35:27;;;;;;;;;2.00;2.00;;;;;17.93;65.36;100863.72;5075764;28;45350;-75
2023/05/01 07:37:56;;;;;;;;;0.00;0.00;;;;;18.08;65.80;100857.59;5076263;28;47605;-74
2023/05/01 07:40:21;;;;;;;;;0.00;0.00;;;;;18.22;65.02;100850.63;5077159;27;45491;-75
2023/05/01 07:42:47;;;;;;;;;0.00;0.00;;;;;18.42;64.99;100865.66;5075526;28;45363;-74
2023/05/01 07:45:13;;;;;;;;;0.00;0.00;;;;;18.36;64.85;100834.78;5076829;27;45524;-75
2023/05/01 07:47:38;;;;;;;;;0.00;0.00;;;;;18.47;64.37;100851.56;5076060;28;47585;-74
2023/05/01 07:50:04;;;;;;;;;0.00;0.00;;;;;18.51;64.67;100856.88;5076657;27;45415;-74
2023/05/01 07:52:30;;;;;;;;;0.67;0.00;;;;;18.57;63.19;100857.75;5075552;28;45425;-75
2023/05/01 07:54:55;;;;;;;;;0.00;0.00;;;;;18.53;62.77;100856.00;5075583;28;45575;-76
2023/05/01 07:57:22;;;;;;;;;1.33;0.33;;;;;18.51;62.55;100843.66;5076891;28;46515;-76
2023/05/01 07:59:47;;;;;;;;;0.00;0.00;;;;;18.49;63.19;100841.00;5075830;28;45961;-75
2023/05/01 08:02:16;;;;;;;;;0.00;0.00;;;;;18.47;62.56;100862.16;5075570;28;45393;-76
2023/05/01 08:04:41;;;;;;;;;0.00;0.00;;;;;18.25;62.94;100845.34;5075397;28;45472;-75
2023/05/01 08:07:07;;;;;;;;;0.00;0.00;;;;;18.22;64.33;100852.38;5091778;27;48042;-77
2023/05/01 08:09:32;;;;;;;;;0.00;0.00;;;;;18.22;64.30;100845.34;5075712;27;45744;-75
2023/05/01 08:11:58;;;;;;;;;0.00;0.00;;;;;18.41;64.02;100862.13;5074963;28;45264;-75
2023/05/01 08:14:23;;;;;;;;;0.00;0.00;;;;;18.36;64.09;100836.53;5089718;27;45612;-76
2023/05/01 08:16:54;;;;;;;;;0.00;0.00;;;;;18.70;62.65;100853.34;5074121;28;47812;-75
2023/05/01 08:19:19;;;;;;;;;0.00;0.00;;;;;19.08;60.32;100856.09;5073759;28;45484;-74
2023/05/01 08:21:45;;;;;;;;;0.00;0.00;;;;;19.36;61.29;100847.22;5075321;27;45535;-75
2023/05/01 08:24:10;;;;;;;;;0.00;0.00;;;;;19.66;60.86;100854.25;5074371;28;45511;-75
2023/05/01 08:26:36;;;;;;;;;1.00;0.33;;;;;19.57;59.01;100827.75;5073711;28;47011;-75
2023/05/01 08:29:02;;;;;;;;;1.00;1.00;;;;;19.70;57.12;100828.63;5073886;28;45472;-75
2023/05/01 08:31:27;;;;;;;;;0.00;0.00;;;;;19.77;58.40;100830.38;5082922;27;45692;-74
2023/05/01 08:33:53;;;;;;;;;0.00;0.00;;;;;19.93;58.94;100861.25;5075314;27;45567;-75
2023/05/01 08:36:18;;;;;;;;;0.00;0.00;;;;;19.83;58.46;100864.81;5073479;28;47805;-76
2023/05/01 08:38:44;;;;;;;;;0.00;0.00;;;;;19.62;58.25;100860.44;5075218;27;45807;-75
2023/05/01 08:41:15;;;;;;;;;0.00;0.00;;;;;19.29;58.79;100827.81;5074035;28;45499;-73
2023/05/01 08:43:42;;;;;;;;;0.00;0.00;;;;;19.40;59.27;100862.25;5072287;28;45503;-73
2023/05/01 08:46:08;;;;;;;;;0.00;0.00;;;;;19.36;59.38;100858.72;5074156;28;46370;-74
2023/05/01 08:48:35;;;;;;;;;0.00;0.00;;;;;19.53;58.86;100879.88;5075654;27;45258;-75
2023/05/01 08:51:03;;;;;;;;;0.00;0.00;;;;;19.33;58.76;100871.97;5075532;27;45222;-75
2023/05/01 08:53:31;;;;;;;;;0.00;0.00;;;;;19.58;59.14;100874.59;5075736;27;45621;-75
2023/05/01 08:55:59;;;;;;;;;0.67;0.00;;;;;19.94;58.30;100871.00;5074934;28;46435;-75
2023/05/01 08:58:27;;;;;;;;;1.00;0.33;;;;;20.46;57.00;100873.41;5077089;28;45500;-77
2023/05/01 09:00:56;;;;;;;;;0.00;0.00;;;;;20.62;55.59;100868.03;5076389;28;45400;-75
2023/05/01 09:03:22;;;;;;;;;2.67;2.00;;;;;20.36;56.17;100852.25;5086023;27;45460;-75
2023/05/01 09:05:48;;;;;;;;;0.00;0.00;;;;;20.65;56.10;100878.63;5077097;28;45267;-75
2023/05/01 09:08:14;;;;;;;;;0.00;0.00;;;;;20.91;55.78;100872.25;5077064;28;45582;-75
2023/05/01 09:10:45;;;;;;;;;0.00;0.00;;;;;21.11;55.36;100882.72;5085816;27;45473;-75
2023/05/01 09:13:11;;;;;;;;;1.00;1.00;;;;;21.04;55.23;100869.50;5079026;27;45283;-75
2023/05/01 09:15:37;;;;;;;;;1.00;1.00;;;;;21.11;55.76;100882.72;5078367;28;46598;-75
2023/05/01 09:18:03;;;;;;;;;0.33;0.33;;;;;20.80;54.77;100859.94;5077813;27;45455;-75
2023/05/01 09:20:29;;;;;;;;;0.67;0.67;;;;;20.78;55.06;100860.84;5078937;27;45515;-75
2023/05/01 09:22:58;;;;;;;;;2.00;2.00;;;;;20.96;55.02;100871.34;5085997;27;45540;-73
2023/05/01 09:25:23;;;;;;;;;0.00;0.00;;;;;21.08;54.11;100869.47;5078223;27;45692;-72
2023/05/01 09:27:49;;;;;;;;;1.00;0.00;;;;;21.25;53.64;100884.38;5076887;28;45412;-79
2023/05/01 09:30:36;;;;;;;;;0.33;0.00;;;;;21.33;52.80;100902.03;5078873;27;45485;-77
2023/05/01 09:33:09;;;;;;;;;1.00;0.00;;;;;21.30;52.95;100896.75;5076302;28;45671;-77
2023/05/01 09:35:55;;;;;;;;;0.00;0.00;;;;;21.18;52.66;100885.31;5077849;27;46106;-80
2023/05/01 09:38:28;;;;;;;;;0.00;0.00;;;;;21.25;52.34;100891.50;5077231;28;45528;-74
2023/05/01 09:40:56;;;;;;;;;1.33;0.00;;;;;21.28;52.44;100895.88;5077950;27;45452;-77
2023/05/01 09:43:28;;;;;;;;;4.33;4.00;;;;;21.57;52.17;100909.81;5078080;27;45417;-72
2023/05/01 09:46:02;;;;;;;;;0.00;0.00;;;;;21.79;50.25;100883.03;5093450;27;45500;-77
2023/05/01 09:48:29;;;;;;;;;0.00;0.00;;;;;22.43;50.64;100895.56;5075317;28;45873;-76
2023/05/01 09:50:54;;;;;;;;;2.00;1.50;;;;;22.92;49.01;100909.06;5078033;27;45354;-75
2023/05/01 09:53:36;;;;;;;;;0.00;0.00;;;;;23.40;48.55;100919.91;5078656;27;45471;-75
2023/05/01 09:56:03;;;;;;;;;0.00;0.00;;;;;23.43;48.05;100902.03;5078208;28;45340;-74
2023/05/01 09:58:28;;;;;;;;;0.00;0.00;;;;;23.53;47.09;100923.22;5078085;27;45481;-75
2023/05/01 10:00:54;;;;;;;;;0.00;0.00;;;;;23.46;47.84;100905.56;5077316;27;45511;-75
2023/05/01 10:03:20;;;;;;;;;0.00;0.00;;;;;23.70;47.17;100914.94;5077986;27;45301;-75
2023/05/01 10:05:46;;;;;;;;;0.00;0.00;;;;;23.61;45.02;100884.81;5076894;27;45499;-74
2023/05/01 10:08:13;;;;;;;;;0.00;0.00;;;;;23.92;44.67;100889.63;5085977;27;45435;-77
2023/05/01 10:10:41;;;;;;;;;0.00;0.00;;;;;24.31;45.16;100915.50;5083145;27;45509;-73
2023/05/01 10:13:16;;;;;;;;;0.00;0.00;;;;;24.34;44.97;100919.00;5076295;28;45613;-72
2023/05/01 10:15:45;;;;;;;;;0.00;0.00;;;;;24.16;44.45;100914.94;5074127;28;46938;-72
2023/05/01 10:18:13;;;;;;;;;0.00;0.00;;;;;24.05;44.43;100926.72;5077283;28;45539;-73
2023/05/01 10:20:39;;;;;;;;;0.00;0.00;;;;;23.97;44.73;100933.13;5077645;27;45497;-73
2023/05/01 10:23:05;;;;;;;;;0.33;0.00;;;;;23.85;45.46;100911.97;5077925;27;45298;-74
2023/05/01 10:25:31;;;;;;;;;0.00;0.00;;;;;23.94;44.49;100927.81;5075666;28;45598;-75
2023/05/01 10:27:58;;;;;;;;;1.00;1.00;;;;;23.90;44.27;100931.47;5077756;27;45290;-75
2023/05/01 10:30:25;;;;;;;;;1.00;1.00;;;;;23.78;45.04;100927.22;5075095;28;45252;-76
2023/05/01 10:32:51;;;;;;;;;0.00;0.00;;;;;23.88;44.65;100917.28;5074541;28;45614;-73
2023/05/01 10:35:37;;;;;;;;;0.00;0.00;;;;;23.95;44.35;100937.56;5075791;28;46296;-73
2023/05/01 10:38:09;;;;;;;;;2.00;2.00;;;;;23.76;44.86;100918.34;5077050;28;45380;-76
2023/05/01 10:40:48;;;;;;;;;0.00;0.00;;;;;23.64;44.31;100918.56;5077560;28;45534;-73
2023/05/01 10:43:29;;;;;;;;;0.00;0.00;;;;;23.88;43.74;100945.75;5075996;28;45453;-73
2023/05/01 10:46:07;;;;;;;;;0.00;0.00;;;;;23.99;44.17;100935.72;5087098;27;47204;-75
2023/05/01 10:48:39;;;;;;;;;0.00;0.00;;;;;24.08;43.91;100950.69;5057032;28;45243;-74
2023/05/01 10:51:14;;;;;;;;;0.00;0.00;;;;;23.90;43.35;100918.13;5057440;28;45661;-78
2023/05/01 10:53:44;;;;;;;;;0.00;0.00;;;;;23.99;43.79;100944.63;5069197;28;45298;-77
2023/05/01 10:56:25;;;;;;;;;0.00;0.00;;;;;23.94;43.32;100941.16;5076923;27;46404;-77
2023/05/01 10:59:05;;;;;;;;;0.00;0.00;;;;;23.84;42.67;100947.59;5076411;27;45550;-77
2023/05/01 11:01:34;;;;;;;;;1.00;0.00;;;;;23.85;43.31;100941.31;5077295;28;45134;-78
2023/05/01 11:04:08;;;;;;;;;0.00;0.00;;;;;23.82;43.70;100936.06;5076966;27;45493;-80
2023/05/01 11:06:35;;;;;;;;;0.00;0.00;;;;;23.61;43.21;100938.16;5076819;27;46289;-75
2023/05/01 11:09:01;;;;;;;;;0.00;0.00;;;;;23.31;43.78;100936.03;5075611;28;45418;-75
2023/05/01 11:11:27;;;;;;;;;0.00;0.00;;;;;23.39;44.46;100947.44;5076803;27;45359;-73
2023/05/01 11:14:07;;;;;;;;;0.00;0.00;;;;;23.20;44.50;100920.22;5076125;28;45549;-74
2023/05/01 11:16:34;;;;;;;;;0.00;0.00;;;;;23.40;44.92;100943.88;5092746;27;47065;-76
2023/05/01 11:19:00;;;;;;;;;0.00;0.00;;;;;23.36;44.92;100937.72;5075771;28;45526;-73
2023/05/01 11:21:32;;;;;;;;;0.00;0.00;;;;;23.33;45.34;100939.56;5074770;28;45502;-73
2023/05/01 11:24:02;;;;;;;;;0.00;0.00;;;;;23.29;45.48;100929.84;5076905;27;45295;-74
2023/05/01 11:26:28;;;;;;;;;0.00;0.00;;;;;23.36;44.68;100934.19;5076379;27;45348;-74